Time;durP1;ratioP1;P1;durP2;ratioP2;P2;SDS_P1;SDS_P2;PMS_P1;PMS_P2;Temp;Humidity;BMP_temperature;BMP_pressure;BME280_temperature;BME280_humidity;BME280_pressure;Samples;Min_cycle;Max_cycle;Signal;HPM_P1;HPM_P2
2021/01/05 00:02:28;;;;;;;25.38;8.43;;;6.30;62.40;;;;;;6274143;28;20483;-81
2021/01/05 00:05:31;;;;;;;23.50;8.23;;;6.30;62.40;;;;;;6278070;28;20447;-81
2021/01/05 00:08:32;;;;;;;31.42;8.27;;;6.30;63.20;;;;;;6282153;28;20404;-81
2021/01/05 00:11:32;;;;;;;19.83;8.10;;;6.20;62.50;;;;;;6283721;28;20060;-80
2021/01/05 00:14:34;;;;;;;23.23;9.07;;;6.20;62.70;;;;;;6296242;28;20471;-81
2021/01/05 00:17:36;;;;;;;21.40;9.32;;;6.10;62.90;;;;;;6295064;28;20037;-81
2021/01/05 00:20:37;;;;;;;23.95;9.10;;;6.10;63.10;;;;;;6278137;28;20444;-81
2021/01/05 00:23:38;;;;;;;33.35;8.98;;;6.10;63.20;;;;;;6299609;28;20037;-81
2021/01/05 00:26:41;;;;;;;25.08;9.93;;;6.10;63.30;;;;;;6304060;28;20052;-81
2021/01/05 00:29:43;;;;;;;17.60;8.00;;;6.10;63.40;;;;;;6313475;28;20036;-81
2021/01/05 00:32:46;;;;;;;29.00;9.65;;;6.10;63.40;;;;;;6290052;28;20040;-81
2021/01/05 00:35:47;;;;;;;25.65;7.70;;;6.10;64.20;;;;;;6327276;28;20078;-80
2021/01/05 00:38:48;;;;;;;27.00;8.77;;;6.00;63.30;;;;;;6317450;28;20036;-80
2021/01/05 00:41:49;;;;;;;30.50;10.00;;;6.10;63.20;;;;;;6299042;28;20047;-80
2021/01/05 00:44:50;;;;;;;21.75;8.02;;;6.10;63.20;;;;;;6319251;28;20451;-80
2021/01/05 00:47:51;;;;;;;24.38;10.25;;;6.10;63.30;;;;;;6296848;28;20052;-80
2021/01/05 00:50:52;;;;;;;24.48;9.35;;;6.10;63.20;;;;;;6324438;28;20024;-81
2021/01/05 00:53:53;;;;;;;26.75;8.88;;;6.10;63.20;;;;;;6322687;28;20048;-80
2021/01/05 00:57:13;;;;;;;21.23;8.20;;;6.10;63.20;;;;;;6275302;28;20054;-80
2021/01/05 01:00:25;;;;;;;24.73;8.30;;;6.10;63.30;;;;;;6287429;28;20050;-81
2021/01/05 01:03:30;;;;;;;23.17;8.90;;;6.10;63.20;;;;;;6311369;28;20043;-80
2021/01/05 01:06:32;;;;;;;29.30;8.98;;;6.20;63.20;;;;;;6286937;28;20051;-81
2021/01/05 01:09:33;;;;;;;25.15;9.55;;;6.20;63.20;;;;;;6267094;28;20040;-81
2021/01/05 01:12:35;;;;;;;25.73;9.63;;;6.20;63.20;;;;;;6298529;28;20379;-81
2021/01/05 01:15:36;;;;;;;24.17;9.07;;;6.20;63.10;;;;;;6293965;28;20031;-81
2021/01/05 01:18:38;;;;;;;25.90;10.35;;;6.20;63.10;;;;;;6278261;28;20047;-80
2021/01/05 01:21:47;;;;;;;18.27;8.15;;;6.20;63.00;;;;;;6303614;28;20036;-81
2021/01/05 01:24:49;;;;;;;22.10;9.13;;;6.20;62.90;;;;;;6298924;28;20112;-81
2021/01/05 01:27:52;;;;;;;24.85;9.23;;;6.30;62.90;;;;;;6317677;28;20040;-81
2021/01/05 01:31:02;;;;;;;20.15;8.45;;;6.20;62.80;;;;;;6279707;28;20051;-81
2021/01/05 01:34:11;;;;;;;20.05;7.63;;;6.30;62.90;;;;;;6280355;28;20032;-81
2021/01/05 01:37:16;;;;;;;20.80;8.70;;;6.30;62.70;;;;;;6286275;28;20032;-81
2021/01/05 01:40:40;;;;;;;25.95;9.55;;;6.30;62.60;;;;;;6304287;28;20113;-80
2021/01/05 01:43:49;;;;;;;26.77;9.10;;;6.40;62.50;;;;;;6318560;28;20458;-81
2021/01/05 01:47:20;;;;;;;25.92;9.65;;;6.40;62.40;;;;;;6294010;28;20447;-80
2021/01/05 01:50:25;;;;;;;24.45;8.30;;;6.40;62.20;;;;;;6281100;28;20033;-80
2021/01/05 01:53:41;;;;;;;22.90;8.68;;;6.30;62.10;;;;;;6275124;28;20110;-80
2021/01/05 01:57:12;;;;;;;29.67;9.95;;;6.30;62.20;;;;;;6290263;28;20096;-80
2021/01/05 02:00:22;;;;;;;23.63;8.77;;;6.40;62.30;;;;;;6304869;28;20036;-80
2021/01/05 02:03:58;;;;;;;28.52;9.85;;;6.40;62.20;;;;;;6313677;28;20028;-81
2021/01/05 02:07:18;;;;;;;18.27;8.27;;;6.40;62.10;;;;;;6221537;28;20045;-81
2021/01/05 02:10:59;;;;;;;26.02;9.25;;;6.40;61.90;;;;;;6233246;28;20037;-81
2021/01/05 02:14:16;;;;;;;21.73;9.00;;;6.50;61.90;;;;;;6242696;28;20123;-81
2021/01/05 02:17:21;;;;;;;27.05;10.10;;;6.40;61.90;;;;;;6255409;28;20053;-81
2021/01/05 02:20:44;;;;;;;33.88;10.65;;;6.50;62.00;;;;;;6238667;28;20041;-81
2021/01/05 02:24:20;;;;;;;27.33;9.30;;;6.50;61.90;;;;;;6203364;28;20034;-81
2021/01/05 02:27:25;;;;;;;;;;;6.50;61.80;;;;;;6202994;28;20077;-81
2021/01/05 02:30:41;;;;;;;23.05;9.15;;;6.50;61.80;;;;;;6187266;28;19921;-82
2021/01/05 02:34:05;;;;;;;28.52;9.05;;;6.60;61.80;;;;;;6202317;28;20049;-81
2021/01/05 02:37:25;;;;;;;26.67;10.45;;;6.50;61.80;;;;;;6191742;28;20117;-80
2021/01/05 02:41:02;;;;;;;20.63;9.00;;;6.50;61.70;;;;;;6205320;28;20033;-80
2021/01/05 02:44:40;;;;;;;31.55;8.07;;;6.50;61.80;;;;;;6232920;28;20456;-80
2021/01/05 02:48:23;;;;;;;27.15;9.15;;;6.50;61.80;;;;;;6220737;28;20060;-80
2021/01/05 02:51:48;;;;;;;25.00;9.25;;;6.50;61.70;;;;;;6245693;28;20041;-80
2021/01/05 02:55:41;;;;;;;25.98;9.43;;;6.60;61.70;;;;;;6233019;28;20037;-81
2021/01/05 02:59:22;;;;;;;25.80;9.43;;;6.60;61.50;;;;;;6226030;28;20042;-80
2021/01/05 03:03:13;;;;;;;28.65;9.90;;;6.60;61.40;;;;;;6274769;28;20051;-80
2021/01/05 03:06:44;;;;;;;30.15;8.02;;;6.60;61.30;;;;;;6221276;28;20053;-80
2021/01/05 03:10:37;;;;;;;24.15;8.23;;;6.70;61.20;;;;;;6213525;28;20456;-80
2021/01/05 03:14:02;;;;;;;27.90;9.15;;;6.70;61.00;;;;;;6211696;28;20054;-80
2021/01/05 03:17:22;;;;;;;26.55;9.90;;;6.70;61.00;;;;;;6228989;28;20042;-80
2021/01/05 03:21:13;;;;;;;29.80;9.85;;;6.70;60.80;;;;;;6245244;28;20390;-80
2021/01/05 03:24:34;;;;;;;23.73;9.07;;;6.70;60.80;;;;;;6244127;28;20041;-81
2021/01/05 03:27:56;;;;;;;27.27;9.50;;;6.70;60.80;;;;;;6237698;28;20046;-81
2021/01/05 03:31:22;;;;;;;29.70;9.70;;;6.70;60.80;;;;;;6199135;28;20046;-81
2021/01/05 03:34:42;;;;;;;28.17;9.43;;;6.70;60.80;;;;;;6212804;28;20049;-81
2021/01/05 03:38:01;;;;;;;39.65;11.80;;;6.70;60.80;;;;;;6233432;28;20062;-81
2021/01/05 03:41:32;;;;;;;30.80;8.82;;;6.70;60.80;;;;;;6186405;28;20030;-80
2021/01/05 03:45:20;;;;;;;24.80;8.82;;;6.60;60.70;;;;;;6172874;28;20427;-80
2021/01/05 03:48:40;;;;;;;29.73;10.40;;;6.60;60.80;;;;;;6173152;28;20046;-80
2021/01/05 03:51:59;;;;;;;23.85;9.75;;;6.60;60.70;;;;;;6158543;28;20034;-80
2021/01/05 03:55:19;;;;;;;26.73;9.93;;;6.60;60.70;;;;;;6168475;28;20142;-81
2021/01/05 03:58:39;;;;;;;26.27;8.85;;;6.60;60.90;;;;;;6150818;28;20059;-80
2021/01/05 04:01:59;;;;;;;24.58;8.27;;;6.60;61.00;;;;;;6148594;28;20382;-81
2021/01/05 04:05:00;;;;;;;29.63;9.48;;;6.60;61.00;;;;;;6115367;28;20070;-81
2021/01/05 04:08:01;;;;;;;21.85;8.43;;;6.60;61.90;;;;;;6149178;28;20039;-81
2021/01/05 04:11:03;;;;;;;32.95;9.98;;;6.60;61.10;;;;;;6148266;28;20113;-81
2021/01/05 04:14:04;;;;;;;26.20;10.55;;;6.60;61.00;;;;;;6148612;28;20091;-81
2021/01/05 04:17:05;;;;;;;22.50;8.93;;;6.60;61.10;;;;;;6235652;28;20069;-80
2021/01/05 04:20:07;;;;;;;24.98;9.90;;;6.60;61.10;;;;;;6274762;28;20055;-80
2021/01/05 04:23:08;;;;;;;26.90;10.10;;;6.60;61.10;;;;;;6274673;28;20106;-81
2021/01/05 04:26:09;;;;;;;27.40;9.27;;;6.60;61.10;;;;;;6277928;28;20087;-81
2021/01/05 04:29:11;;;;;;;29.42;9.80;;;6.70;61.20;;;;;;6304614;28;20044;-81
2021/01/05 04:32:12;;;;;;;30.17;9.07;;;6.70;61.20;;;;;;6282611;28;20037;-81
2021/01/05 04:35:15;;;;;;;26.02;9.07;;;6.70;61.10;;;;;;6292132;28;20443;-80
2021/01/05 04:38:16;;;;;;;34.58;11.07;;;6.70;61.10;;;;;;6310765;28;20067;-80
2021/01/05 04:41:18;;;;;;;26.10;9.13;;;6.70;61.00;;;;;;6299579;28;20028;-81
2021/01/05 04:44:24;;;;;;;20.10;8.70;;;6.80;61.00;;;;;;6265724;28;20039;-80
2021/01/05 04:47:46;;;;;;;33.35;11.07;;;6.80;60.90;;;;;;6304257;28;20035;-81
2021/01/05 04:50:57;;;;;;;24.55;9.88;;;6.90;60.80;;;;;;6289872;28;20039;-81
2021/01/05 04:54:04;;;;;;;22.63;9.35;;;6.90;60.60;;;;;;6278721;28;20037;-80
2021/01/05 04:57:12;;;;;;;26.08;8.40;;;6.90;60.50;;;;;;6281263;28;20159;-81
2021/01/05 05:00:23;;;;;;;27.77;9.95;;;6.90;60.40;;;;;;6316295;28;20039;-81
2021/01/05 05:03:59;;;;;;;23.67;9.35;;;7.00;60.40;;;;;;6280095;28;20025;-82
2021/01/05 05:07:32;;;;;;;27.35;9.50;;;6.90;60.20;;;;;;6331154;28;20040;-81
2021/01/05 05:10:38;;;;;;;24.35;9.55;;;6.90;60.20;;;;;;6190518;28;20101;-81
2021/01/05 05:14:06;;;;;;;29.23;10.68;;;7.00;60.30;;;;;;6216544;28;20063;-81
2021/01/05 05:17:42;;;;;;;26.30;10.80;;;7.00;60.30;;;;;;6215844;28;20048;-81
2021/01/05 05:21:02;;;;;;;29.58;9.77;;;6.90;60.30;;;;;;6219313;28;20030;-81
2021/01/05 05:24:25;;;;;;;21.15;9.95;;;6.90;60.50;;;;;;6202488;28;20446;-80
2021/01/05 05:27:29;;;;;;;26.25;9.65;;;6.90;60.70;;;;;;6187686;28;20046;-81
2021/01/05 05:30:39;;;;;;;30.52;10.95;;;6.90;61.00;;;;;;6194880;28;20061;-81
2021/01/05 05:33:40;;;;;;;32.38;10.02;;;6.90;61.20;;;;;;6195178;28;20188;-81
2021/01/05 05:37:08;;;;;;;29.25;9.80;;;6.90;61.20;;;;;;6211709;28;20080;-81
2021/01/05 05:40:30;;;;;;;23.73;9.60;;;6.90;61.30;;;;;;6178366;28;20046;-81
2021/01/05 05:43:46;;;;;;;23.75;10.45;;;6.90;61.30;;;;;;6191554;28;20035;-81
2021/01/05 05:47:08;;;;;;;27.83;9.63;;;6.90;61.40;;;;;;6256371;28;20028;-81
2021/01/05 05:51:05;;;;;;;27.27;10.82;;;7.00;61.30;;;;;;6287711;28;20062;-81
2021/01/05 05:54:18;;;;;;;26.70;9.77;;;7.00;61.30;;;;;;6230967;28;20440;-78
2021/01/05 05:57:46;;;;;;;26.90;9.73;;;7.00;61.20;;;;;;6229435;28;20182;-79
2021/01/05 06:00:51;;;;;;;26.80;9.20;;;7.00;61.20;;;;;;6246755;28;20037;-78
2021/01/05 06:03:52;;;;;;;27.27;9.45;;;7.00;61.40;;;;;;6261560;28;20048;-78
2021/01/05 06:06:53;;;;;;;27.35;10.60;;;7.00;61.50;;;;;;6259867;28;20191;-77
2021/01/05 06:09:54;;;;;;;25.48;9.73;;;7.00;61.50;;;;;;6244522;28;20053;-76
2021/01/05 06:12:56;;;;;;;23.95;8.68;;;7.00;61.50;;;;;;6238473;28;20041;-76
2021/01/05 06:15:57;;;;;;;30.38;9.77;;;7.00;61.50;;;;;;6233281;28;20037;-76
2021/01/05 06:18:58;;;;;;;21.38;8.30;;;7.00;61.50;;;;;;6254412;28;20603;-79
2021/01/05 06:21:59;;;;;;;28.60;9.60;;;7.00;61.40;;;;;;6230638;28;20080;-77
2021/01/05 06:25:00;;;;;;;24.77;9.85;;;7.00;61.40;;;;;;6268316;28;20044;-76
2021/01/05 06:28:02;;;;;;;27.98;10.38;;;7.00;61.40;;;;;;6268677;28;20051;-79
2021/01/05 06:31:02;;;;;;;29.67;10.73;;;7.00;61.40;;;;;;6276538;28;20086;-83
2021/01/05 06:34:05;;;;;;;24.63;9.18;;;7.00;61.30;;;;;;6297951;28;20045;-82
2021/01/05 06:37:06;;;;;;;26.35;9.27;;;7.00;61.30;;;;;;6326905;28;20028;-83
2021/01/05 06:40:08;;;;;;;30.17;10.40;;;7.00;61.20;;;;;;6291284;28;20055;-84
2021/01/05 06:43:10;;;;;;;25.73;10.68;;;7.00;61.30;;;;;;6293136;28;20394;-84
2021/01/05 06:46:11;;;;;;;28.08;10.48;;;6.90;61.30;;;;;;6295456;28;20117;-83
2021/01/05 06:49:12;;;;;;;28.30;10.20;;;7.00;61.40;;;;;;6303200;28;20041;-84
2021/01/05 06:52:13;;;;;;;32.08;11.13;;;7.00;61.50;;;;;;6297207;28;20471;-85
2021/01/05 06:55:13;;;;;;;24.38;9.75;;;7.00;61.60;;;;;;6323319;28;20054;-85
2021/01/05 06:58:14;;;;;;;28.65;9.98;;;7.00;61.70;;;;;;6313840;28;20043;-74
2021/01/05 07:01:15;;;;;;;35.83;11.90;;;7.00;61.60;;;;;;6286639;28;20090;-80
2021/01/05 07:04:16;;;;;;;28.00;11.38;;;7.10;61.60;;;;;;6303951;28;20113;-80
2021/01/05 07:07:17;;;;;;;28.42;10.75;;;7.10;61.50;;;;;;6289253;28;20190;-81
2021/01/05 07:10:20;;;;;;;34.63;10.15;;;7.20;61.50;;;;;;6255385;28;20028;-80
2021/01/05 07:13:24;;;;;;;38.40;10.98;;;7.20;61.40;;;;;;6269231;28;20356;-81
2021/01/05 07:16:25;;;;;;;32.30;10.63;;;7.20;61.30;;;;;;6326310;28;20032;-80
2021/01/05 07:19:26;;;;;;;31.52;10.93;;;7.10;61.20;;;;;;6327207;28;20033;-80
2021/01/05 07:22:27;;;;;;;29.08;10.68;;;7.20;61.30;;;;;;6291978;28;20033;-79
2021/01/05 07:25:27;;;;;;;28.65;10.98;;;7.10;61.30;;;;;;6335243;28;20031;-80
2021/01/05 07:28:28;;;;;;;36.53;11.95;;;7.20;61.40;;;;;;6313245;28;20041;-80
2021/01/05 07:31:33;;;;;;;28.25;10.90;;;7.20;61.20;;;;;;6300806;28;20039;-80
2021/01/05 07:34:37;;;;;;;28.33;11.43;;;7.20;61.10;;;;;;6274428;28;20064;-79
2021/01/05 07:37:42;;;;;;;36.42;11.00;;;7.20;61.10;;;;;;6280462;28;20052;-79
2021/01/05 07:40:43;;;;;;;25.45;11.05;;;7.30;61.20;;;;;;6321712;28;20039;-81
2021/01/05 07:43:45;;;;;;;34.17;11.57;;;7.30;61.10;;;;;;6322214;28;20089;-78
2021/01/05 07:46:46;;;;;;;32.38;12.35;;;7.30;61.00;;;;;;6291627;28;20467;-80
2021/01/05 07:49:48;;;;;;;30.38;10.68;;;7.30;61.00;;;;;;6300908;28;20028;-80
2021/01/05 07:52:51;;;;;;;27.15;9.73;;;7.30;60.80;;;;;;6311396;28;20044;-80
2021/01/05 07:55:53;;;;;;;27.55;11.13;;;7.30;60.90;;;;;;6303417;28;20405;-79
2021/01/05 07:59:51;;;;;;;26.83;9.95;;;7.30;60.80;;;;;;6221822;28;20044;-79
2021/01/05 08:03:07;;;;;;;;;;;7.30;60.80;;;;;;6104906;28;20037;-80
2021/01/05 08:07:06;;;;;;;;;;;;;;;;;;;;;
2021/01/05 08:11:04;;;;;;;30.65;10.52;;;7.30;60.70;;;;;;6018194;29;20086;-81
2021/01/05 08:15:00;;;;;;;31.85;13.38;;;7.30;60.80;;;;;;5917294;29;20115;-80
2021/01/05 08:32:14;;;;;;;29.55;11.57;;;7.30;61.50;;;;;;7424715;22;10269458;-80
2021/01/05 08:36:09;;;;;;;;;;;;;;;;;;;;;
2021/01/05 08:40:07;;;;;;;29.23;10.63;;;7.40;59.80;;;;;;7579918;23;20085;-80
2021/01/05 08:43:17;;;;;;;38.90;12.43;;;7.40;60.60;;;;;;7413371;23;20030;-79
2021/01/05 08:46:44;;;;;;;30.48;12.05;;;7.50;59.80;;;;;;7323745;23;21264;-79
2021/01/05 08:50:17;;;;;;;31.17;12.73;;;7.50;59.80;;;;;;7278423;24;20384;-79
2021/01/05 08:53:37;;;;;;;37.85;12.60;;;7.60;59.80;;;;;;7215185;24;20029;-79
2021/01/05 08:57:16;;;;;;;34.57;13.87;;;7.70;59.70;;;;;;7313419;23;20012;-80
2021/01/05 09:00:32;;;;;;;41.75;13.93;;;7.90;59.60;;;;;;7362030;24;20270;-81
2021/01/05 09:03:35;;;;;;;32.20;12.13;;;7.80;59.40;;;;;;7305935;24;20375;-80
2021/01/05 09:07:06;;;;;;;38.78;14.75;;;7.80;59.40;;;;;;7273318;24;20017;-80
2021/01/05 09:10:37;;;;;;;39.50;13.82;;;7.80;59.20;;;;;;7287564;24;20058;-81
2021/01/05 09:13:59;;;;;;;32.63;11.93;;;7.90;59.20;;;;;;7274019;24;20297;-81
2021/01/05 09:17:29;;;;;;;34.38;13.40;;;7.70;59.10;;;;;;7441405;23;20019;-81
2021/01/05 09:21:06;;;;;;;37.38;12.98;;;7.90;59.00;;;;;;7404636;23;20461;-81
2021/01/05 09:24:25;;;;;;;38.25;13.20;;;7.90;58.90;;;;;;7386593;23;20300;-81
2021/01/05 09:27:42;;;;;;;;;;;7.80;58.90;;;;;;7438117;23;20710;-80
2021/01/05 09:31:45;;;;;;;36.20;13.48;;;7.80;58.90;;;;;;7451487;23;20305;-80
2021/01/05 09:35:30;;;;;;;34.13;13.23;;;7.90;58.80;;;;;;7380027;23;20026;-80
2021/01/05 09:43:46;;;;;;;33.30;13.40;;;7.90;58.60;;;;;;7198391;24;21414;-81
2021/01/05 09:51:49;;;;;;;41.05;14.40;;;7.90;58.70;;;;;;7236128;24;20383;-81
2021/01/05 09:55:37;;;;;;;;;;;;;;;;;;;;;
2021/01/05 09:59:20;;;;;;;34.70;12.13;;;7.90;58.70;;;;;;6989194;24;3001714;-80
2021/01/05 10:03:33;;;;;;;37.28;12.98;;;7.90;58.60;;;;;;6622624;24;4978646;-80
2021/01/05 12:58:33;;;;;;;26.42;8.80;;;9.40;52.50;;;;;;7230184;24;20022;-80
2021/01/05 13:01:37;;;;;;;26.55;10.50;;;9.30;52.50;;;;;;7257308;24;20049;-80
2021/01/05 13:05:17;;;;;;;24.42;8.80;;;9.20;52.70;;;;;;7371820;23;20429;-81
2021/01/05 13:08:51;;;;;;;31.88;10.00;;;9.20;53.00;;;;;;7367595;23;20039;-81
2021/01/05 13:12:30;;;;;;;;;;;;;;;;;;;;;
2021/01/05 13:15:44;;;;;;;23.33;8.15;;;9.00;53.20;;;;;;7366597;23;20020;-81
2021/01/05 13:19:16;;;;;;;23.40;8.77;;;8.90;53.20;;;;;;7392377;23;20040;-81
2021/01/05 13:22:43;;;;;;;34.78;10.60;;;8.90;53.40;;;;;;7345442;23;20367;-80
2021/01/05 13:26:28;;;;;;;30.55;10.77;;;8.80;53.40;;;;;;7320572;23;20067;-81
2021/01/05 13:29:31;;;;;;;26.08;10.20;;;8.70;53.60;;;;;;7415224;23;20093;-80
2021/01/05 13:32:35;;;;;;;38.28;9.50;;;8.70;53.70;;;;;;7489774;23;20326;-79
2021/01/05 13:35:41;;;;;;;25.15;10.00;;;8.60;53.60;;;;;;7723992;23;20364;-79
2021/01/05 13:38:42;;;;;;;28.65;9.82;;;8.60;53.80;;;;;;7699426;23;20032;-79
2021/01/05 13:41:43;;;;;;;24.67;9.57;;;8.60;54.40;;;;;;7683258;23;20016;-81
2021/01/05 13:44:45;;;;;;;22.42;8.32;;;8.50;53.90;;;;;;7679898;23;20021;-80
2021/01/05 13:47:47;;;;;;;24.88;10.05;;;8.60;54.00;;;;;;7727783;23;20072;-79
2021/01/05 13:50:49;;;;;;;18.58;7.75;;;8.50;53.90;;;;;;7690611;23;20092;-79
2021/01/05 13:53:50;;;;;;;22.55;7.97;;;8.50;54.00;;;;;;7650674;23;20016;-80
2021/01/05 13:56:55;;;;;;;23.27;9.27;;;8.50;53.90;;;;;;7662685;23;20027;-81
2021/01/05 13:59:56;;;;;;;27.25;8.65;;;8.50;53.80;;;;;;7686638;23;20017;-80
2021/01/05 14:02:57;;;;;;;25.42;9.48;;;8.50;53.50;;;;;;7712348;23;20087;-79
2021/01/05 14:05:58;;;;;;;34.95;9.68;;;8.40;53.50;;;;;;7712561;23;20096;-79
2021/01/05 14:09:02;;;;;;;23.85;9.25;;;8.30;53.50;;;;;;7693286;23;20077;-81
2021/01/05 14:12:04;;;;;;;27.73;9.68;;;8.30;53.70;;;;;;7670718;23;20043;-79
2021/01/05 14:15:05;;;;;;;30.08;10.35;;;8.30;53.80;;;;;;7687262;23;20165;-79
2021/01/05 14:18:06;;;;;;;27.00;9.45;;;8.30;54.00;;;;;;7663105;23;20013;-82
2021/01/05 14:21:08;;;;;;;29.45;9.57;;;8.30;54.10;;;;;;7662273;23;20040;-79
2021/01/05 14:24:21;;;;;;;29.05;10.23;;;8.30;54.00;;;;;;7685430;23;20068;-79
2021/01/05 14:27:22;;;;;;;29.13;8.63;;;8.30;54.10;;;;;;7685580;23;20016;-81
2021/01/05 14:30:24;;;;;;;27.73;9.10;;;8.40;54.10;;;;;;7664895;23;20344;-80
2021/01/05 14:33:25;;;;;;;28.88;10.32;;;8.40;54.10;;;;;;7693105;23;20036;-79
2021/01/05 14:36:32;;;;;;;25.42;9.55;;;8.40;54.10;;;;;;7678656;23;20014;-79
2021/01/05 14:39:37;;;;;;;22.30;9.25;;;8.40;54.10;;;;;;7691006;23;20012;-80
2021/01/05 14:42:41;;;;;;;26.20;9.60;;;8.40;54.00;;;;;;7691226;23;20450;-80
2021/01/05 14:45:45;;;;;;;26.02;8.90;;;8.40;54.00;;;;;;7712413;23;20017;-80
2021/01/05 14:48:49;;;;;;;23.98;8.70;;;8.40;53.80;;;;;;7712364;23;20096;-80
2021/01/05 14:51:49;;;;;;;28.27;9.88;;;8.40;53.80;;;;;;7712879;23;20134;-80
2021/01/05 14:54:52;;;;;;;21.80;8.48;;;8.40;53.90;;;;;;7712477;23;20031;-80
2021/01/05 14:57:55;;;;;;;29.02;9.68;;;8.40;53.90;;;;;;7686240;23;20373;-80
2021/01/05 15:00:56;;;;;;;29.40;10.82;;;8.30;53.90;;;;;;7687490;23;20016;-79
2021/01/05 15:03:57;;;;;;;26.27;9.45;;;8.20;54.10;;;;;;7687968;23;20023;-81
2021/01/05 15:06:59;;;;;;;28.33;10.02;;;8.20;54.20;;;;;;7687304;23;20017;-79
2021/01/05 15:10:00;;;;;;;27.35;9.73;;;8.20;54.40;;;;;;7668215;23;20042;-80
2021/01/05 15:13:01;;;;;;;35.72;10.43;;;8.10;54.40;;;;;;7664503;23;20016;-79
2021/01/05 15:16:02;;;;;;;34.45;9.30;;;8.00;54.60;;;;;;7685153;23;20016;-81
2021/01/05 15:19:03;;;;;;;23.55;8.73;;;8.00;54.70;;;;;;7658727;23;20066;-79
2021/01/05 15:22:04;;;;;;;28.85;8.30;;;8.00;54.70;;;;;;7712534;23;20396;-79
2021/01/05 15:25:05;;;;;;;27.98;9.63;;;8.00;54.80;;;;;;7715654;23;20017;-79
2021/01/05 15:28:06;;;;;;;28.63;8.65;;;8.00;54.80;;;;;;7712031;23;20051;-79
2021/01/05 15:31:07;;;;;;;24.08;9.23;;;8.10;54.80;;;;;;7713193;23;20095;-79
2021/01/05 15:34:09;;;;;;;29.35;9.90;;;8.10;54.80;;;;;;7658605;23;20013;-79
2021/01/05 15:37:09;;;;;;;25.48;9.57;;;8.00;54.80;;;;;;7685246;23;20024;-79
2021/01/05 15:40:11;;;;;;;25.70;8.63;;;8.00;54.90;;;;;;7710502;23;20111;-80
2021/01/05 15:43:12;;;;;;;31.17;10.68;;;8.00;55.10;;;;;;7700080;23;20017;-79
2021/01/05 15:46:29;;;;;;;29.15;9.50;;;7.90;55.10;;;;;;7687548;23;20027;-78
2021/01/05 15:49:31;;;;;;;29.40;9.85;;;7.90;55.20;;;;;;7684971;23;20111;-79
2021/01/05 15:52:32;;;;;;;25.27;9.13;;;7.90;55.20;;;;;;7686933;23;20120;-79
2021/01/05 15:55:37;;;;;;;33.47;10.43;;;7.90;55.30;;;;;;7711778;23;20077;-82
2021/01/05 15:58:38;;;;;;;23.55;8.32;;;7.80;55.40;;;;;;7711631;23;20432;-81
2021/01/05 16:01:39;;;;;;;33.78;9.45;;;7.80;55.50;;;;;;7712177;23;20027;-79
2021/01/05 16:04:40;;;;;;;27.05;8.52;;;7.80;55.50;;;;;;7685463;23;20355;-79
2021/01/05 16:07:51;;;;;;;30.13;10.75;;;7.70;55.50;;;;;;7665768;23;20016;-79
2021/01/05 16:10:52;;;;;;;28.33;10.90;;;7.60;55.70;;;;;;7718196;23;20028;-80
2021/01/05 16:13:53;;;;;;;33.08;11.30;;;7.60;55.80;;;;;;7695137;23;20039;-79
2021/01/05 16:16:55;;;;;;;27.48;8.65;;;7.60;56.00;;;;;;7691228;23;20043;-80
2021/01/05 16:19:56;;;;;;;27.98;8.77;;;7.50;56.10;;;;;;7685748;23;20027;-75
2021/01/05 16:22:58;;;;;;;35.60;10.60;;;7.50;56.10;;;;;;7711633;23;20349;-81
2021/01/05 16:25:59;;;;;;;28.08;10.95;;;7.50;56.20;;;;;;7714497;23;20039;-81
2021/01/05 16:29:00;;;;;;;30.88;10.02;;;7.50;56.30;;;;;;7683730;23;20397;-79
2021/01/05 16:32:04;;;;;;;26.48;9.50;;;7.40;56.40;;;;;;7636859;23;20100;-80
2021/01/05 16:35:09;;;;;;;26.75;9.25;;;7.40;56.50;;;;;;7656834;23;20024;-79
2021/01/05 16:38:10;;;;;;;26.45;9.38;;;7.40;56.50;;;;;;7686135;23;20031;-82
2021/01/05 16:41:15;;;;;;;28.40;10.30;;;7.30;56.50;;;;;;7684319;23;20019;-81
2021/01/05 16:44:16;;;;;;;31.92;9.88;;;7.30;56.60;;;;;;7689191;23;20026;-83
2021/01/05 16:47:17;;;;;;;26.25;10.25;;;7.30;56.50;;;;;;7687418;23;20099;-84
2021/01/05 16:50:18;;;;;;;33.40;11.43;;;7.30;56.60;;;;;;7703588;23;20020;-81
2021/01/05 16:53:19;;;;;;;34.30;11.40;;;7.30;56.60;;;;;;7712928;23;20008;-81
2021/01/05 16:56:26;;;;;;;28.70;10.63;;;7.30;56.70;;;;;;7741189;23;20040;-80
2021/01/05 16:59:27;;;;;;;27.85;9.90;;;7.30;56.70;;;;;;7727503;23;20031;-82
2021/01/05 17:02:28;;;;;;;22.02;9.00;;;7.30;56.60;;;;;;7665365;23;20008;-82
2021/01/05 17:05:29;;;;;;;27.50;10.75;;;7.30;56.70;;;;;;7641897;23;20332;-81
2021/01/05 17:08:30;;;;;;;25.20;10.05;;;7.30;56.60;;;;;;7662939;23;20028;-81
2021/01/05 17:11:33;;;;;;;30.58;10.15;;;7.40;56.70;;;;;;7714021;23;20095;-84
2021/01/05 17:14:34;;;;;;;39.03;13.13;;;7.30;56.60;;;;;;7662609;23;20016;-84
2021/01/05 17:17:39;;;;;;;32.95;12.55;;;7.30;56.60;;;;;;7688371;23;20420;-84
2021/01/05 17:20:41;;;;;;;28.38;11.05;;;7.30;56.60;;;;;;7714264;23;20083;-82
2021/01/05 17:23:42;;;;;;;31.80;11.18;;;7.30;56.60;;;;;;7716853;23;20320;-82
2021/01/05 17:26:43;;;;;;;23.70;9.00;;;7.30;56.60;;;;;;7713465;23;20051;-82
2021/01/05 17:29:48;;;;;;;27.92;9.63;;;7.40;56.70;;;;;;7688950;23;20128;-82
2021/01/05 17:32:49;;;;;;;32.15;11.13;;;7.40;56.60;;;;;;7690337;23;20023;-82
2021/01/05 17:35:52;;;;;;;26.90;10.13;;;7.30;56.50;;;;;;7688216;23;20020;-82
2021/01/05 17:38:53;;;;;;;29.63;9.88;;;7.40;56.50;;;;;;7715646;23;20705;-82
2021/01/05 17:41:56;;;;;;;27.10;10.40;;;7.40;56.50;;;;;;7667424;23;20083;-81
2021/01/05 17:44:57;;;;;;;22.80;9.05;;;7.40;56.40;;;;;;7694826;23;20304;-78
2021/01/05 17:48:01;;;;;;;23.02;8.52;;;7.40;56.30;;;;;;7694668;23;20008;-80
2021/01/05 17:51:03;;;;;;;28.67;10.70;;;7.50;56.20;;;;;;7682158;23;20029;-79
2021/01/05 17:54:07;;;;;;;28.27;9.35;;;7.50;56.20;;;;;;7669128;23;20035;-79
2021/01/05 17:57:08;;;;;;;28.55;10.80;;;7.50;56.20;;;;;;7692228;23;20107;-77
2021/01/05 18:00:10;;;;;;;28.50;10.48;;;7.50;56.10;;;;;;7691382;23;20012;-78
2021/01/05 18:03:11;;;;;;;31.98;12.18;;;7.50;56.20;;;;;;7700318;23;20017;-77
2021/01/05 18:06:12;;;;;;;26.33;9.68;;;7.40;56.20;;;;;;7724821;23;20071;-79
2021/01/05 18:09:13;;;;;;;26.67;9.77;;;7.40;56.30;;;;;;7676923;23;20023;-80
2021/01/05 18:12:15;;;;;;;31.60;10.57;;;7.40;56.20;;;;;;7691344;23;20024;-78
2021/01/05 18:15:18;;;;;;;28.25;10.77;;;7.50;56.30;;;;;;7691460;23;20021;-78
2021/01/05 18:18:19;;;;;;;25.42;11.10;;;7.40;56.20;;;;;;7683493;23;20016;-78
2021/01/05 18:21:23;;;;;;;32.75;10.93;;;7.40;56.30;;;;;;7681571;23;20078;-78
2021/01/05 18:24:24;;;;;;;26.65;10.73;;;7.40;56.40;;;;;;7656580;23;20021;-79
2021/01/05 18:27:25;;;;;;;32.90;13.98;;;7.40;56.30;;;;;;7713139;23;20115;-77
2021/01/05 18:30:30;;;;;;;26.60;10.30;;;7.40;56.40;;;;;;7691901;23;20412;-79
2021/01/05 18:33:33;;;;;;;22.15;9.38;;;7.40;56.40;;;;;;7667285;23;20017;-77
2021/01/05 18:36:36;;;;;;;27.20;9.95;;;7.40;56.40;;;;;;7682086;23;20097;-78
2021/01/05 18:39:37;;;;;;;31.08;10.68;;;7.40;56.40;;;;;;7712726;23;20102;-78
2021/01/05 18:42:38;;;;;;;27.88;9.57;;;7.40;56.40;;;;;;7684202;23;20312;-78
2021/01/05 18:45:39;;;;;;;29.40;11.95;;;7.40;56.40;;;;;;7712925;23;20024;-79
2021/01/05 18:48:40;;;;;;;28.85;10.00;;;7.40;56.30;;;;;;7677498;23;20024;-81
2021/01/05 18:51:41;;;;;;;25.77;9.90;;;7.40;56.50;;;;;;7680791;23;20076;-81
2021/01/05 18:54:42;;;;;;;25.25;9.60;;;7.30;56.50;;;;;;7666809;23;20132;-81
2021/01/05 18:57:46;;;;;;;26.30;10.40;;;7.30;56.50;;;;;;7687521;23;20032;-80
2021/01/05 19:00:47;;;;;;;35.35;11.65;;;7.30;56.60;;;;;;7680975;23;20020;-80
2021/01/05 19:03:48;;;;;;;26.27;9.73;;;7.20;56.60;;;;;;7657801;23;20427;-78
2021/01/05 19:06:50;;;;;;;21.58;8.32;;;7.30;56.60;;;;;;7708854;23;20327;-83
2021/01/05 19:09:51;;;;;;;21.45;8.48;;;7.30;56.40;;;;;;7657928;23;20028;-80
2021/01/05 19:12:56;;;;;;;32.67;10.38;;;7.30;56.30;;;;;;7680476;23;20016;-79
2021/01/05 19:15:57;;;;;;;28.63;8.77;;;7.30;56.20;;;;;;7707983;23;20009;-78
2021/01/05 19:18:58;;;;;;;21.48;9.80;;;7.30;56.10;;;;;;7690237;23;20424;-79
2021/01/05 19:21:58;;;;;;;20.80;8.05;;;7.30;56.00;;;;;;7690575;23;20021;-78
2021/01/05 19:25:00;;;;;;;30.25;10.55;;;7.40;55.80;;;;;;7667317;23;20016;-79
2021/01/05 19:28:08;;;;;;;25.60;9.55;;;7.40;55.80;;;;;;7694883;23;20482;-79
2021/01/05 19:31:10;;;;;;;22.40;9.32;;;7.40;55.70;;;;;;7671757;23;20024;-80
2021/01/05 19:34:11;;;;;;;23.23;8.23;;;7.40;55.50;;;;;;7671654;23;20403;-79
2021/01/05 19:37:15;;;;;;;20.83;8.48;;;7.40;55.30;;;;;;7721158;23;20028;-78
2021/01/05 19:40:18;;;;;;;21.60;8.27;;;7.40;55.20;;;;;;7721463;23;20017;-78
2021/01/05 19:43:19;;;;;;;18.95;9.45;;;7.40;55.10;;;;;;7693533;23;20019;-80
2021/01/05 19:46:26;;;;;;;24.38;9.20;;;7.40;54.90;;;;;;7695143;23;20008;-80
2021/01/05 19:49:27;;;;;;;21.67;9.23;;;7.40;54.90;;;;;;7696907;23;20059;-80